createdAt,value
2023-04-04T00:00:55.730Z,59628.09
2023-04-04T00:03:24.748Z,59626.47
2023-04-04T00:05:53.262Z,59622.16
2023-04-04T00:08:23.015Z,59622.31
2023-04-04T00:10:51.624Z,59621.09
2023-04-04T00:13:20.056Z,59619.25
2023-04-04T00:15:48.494Z,59613.88
2023-04-04T00:18:17.045Z,59614.78
2023-04-04T00:20:45.647Z,59616.78
2023-04-04T00:23:14.109Z,59615.69
2023-04-04T00:25:44.131Z,59612.47
2023-04-04T00:28:12.503Z,59605.97
2023-04-04T00:30:41.116Z,59612.09
2023-04-04T00:33:09.800Z,59605.81
2023-04-04T00:35:38.354Z,59605.63
2023-04-04T00:38:07.634Z,59604.19
2023-04-04T00:40:43.788Z,59606.56
2023-04-04T00:43:12.554Z,59601.34
2023-04-04T00:45:41.355Z,59603.88
2023-04-04T00:48:10.019Z,59602.78
2023-04-04T00:50:38.652Z,59601.34
2023-04-04T00:53:07.393Z,59602.78
2023-04-04T00:55:38.608Z,59599.72
2023-04-04T00:58:09.002Z,59603.88
2023-04-04T01:00:38.801Z,59598.81
2023-04-04T01:03:10.348Z,59599.19
2023-04-04T01:05:38.834Z,59597.41
2023-04-04T01:08:07.660Z,59596.34
2023-04-04T01:10:36.193Z,59590.72
2023-04-04T01:13:04.597Z,59586.41
2023-04-04T01:15:34.353Z,59589.88
2023-04-04T01:18:07.061Z,59590.03
2023-04-04T01:20:41.802Z,59592.03
2023-04-04T01:23:10.856Z,59590.97
2023-04-04T01:25:40.558Z,59588.78
2023-04-04T01:28:09.102Z,59586.66
2023-04-04T01:30:40.390Z,59585.56
2023-04-04T01:33:14.884Z,59587.19
2023-04-04T01:35:51.930Z,59585.56
2023-04-04T01:38:28.556Z,59583.03
2023-04-04T01:41:04.742Z,59576.75
2023-04-04T01:43:33.383Z,59582.34
2023-04-04T01:46:02.052Z,59579.13
2023-04-04T01:48:30.874Z,59572.22
2023-04-04T01:51:01.240Z,59580.19
2023-04-04T01:53:29.614Z,59573.34
2023-04-04T01:55:59.578Z,59573.34
2023-04-04T01:58:27.963Z,59572.28
2023-04-04T02:00:56.353Z,59572.66
2023-04-04T02:03:24.975Z,59569.44
2023-04-04T02:05:54.078Z,59563.66
2023-04-04T02:08:22.638Z,59564.06
2023-04-04T02:10:51.260Z,59560.44
2023-04-04T02:13:20.949Z,59558.28
2023-04-04T02:15:49.432Z,59557.59
2023-04-04T02:18:18.479Z,59549.31
2023-04-04T02:20:46.866Z,59551.16
2023-04-04T02:23:15.216Z,59547.53
2023-04-04T02:25:43.560Z,59549.00
2023-04-04T02:28:12.081Z,59547.00
2023-04-04T02:30:42.113Z,59549.38
2023-04-04T02:33:10.713Z,59547.53
2023-04-04T02:35:39.077Z,59545.38
2023-04-04T02:38:07.749Z,59537.47
2023-04-04T02:40:39.533Z,59536.78
2023-04-04T02:43:08.121Z,59529.41
2023-04-04T02:45:36.486Z,59529.25
2023-04-04T02:48:07.556Z,59525.66
2023-04-04T02:50:36.257Z,59527.09
2023-04-04T02:53:04.739Z,59529.09
2023-04-04T02:55:33.135Z,59526.94
2023-04-04T02:58:02.414Z,59524.63
2023-04-04T03:00:30.779Z,59524.63
2023-04-04T03:02:59.588Z,59519.94
2023-04-04T03:05:31.283Z,59518.50
2023-04-04T03:08:00.376Z,59517.03
2023-04-04T03:10:30.836Z,59517.97
2023-04-04T03:12:59.485Z,59515.97
2023-04-04T03:15:27.818Z,59517.81
2023-04-04T03:17:56.848Z,59509.53
2023-04-04T03:20:25.904Z,59514.06
2023-04-04T03:22:56.067Z,59507.91
2023-04-04T03:25:24.430Z,59508.28
2023-04-04T03:27:52.847Z,59509.75
2023-04-04T03:30:21.643Z,59506.16
2023-04-04T03:32:50.921Z,59504.53
2023-04-04T03:35:19.368Z,59500.06
2023-04-04T03:37:47.702Z,59495.75
2023-04-04T03:40:17.843Z,59490.94
2023-04-04T03:42:46.301Z,59486.78
2023-04-04T03:45:14.710Z,59489.84
2023-04-04T03:47:43.062Z,59487.69
2023-04-04T03:50:12.412Z,59478.34
2023-04-04T03:52:40.962Z,59482.31
2023-04-04T03:55:10.695Z,59489.16
2023-04-04T03:57:40.444Z,59483.72
2023-04-04T04:00:09.741Z,59484.09
2023-04-04T04:02:38.406Z,59483.41
2023-04-04T04:05:07.721Z,59483.41
2023-04-04T04:07:36.124Z,59482.31
2023-04-04T04:10:05.449Z,59478.19
2023-04-04T04:12:33.854Z,59476.94
2023-04-04T04:15:03.814Z,59476.56
2023-04-04T04:17:32.227Z,59476.41
2023-04-04T04:20:00.766Z,59472.81
2023-04-04T04:22:29.131Z,59471.38
2023-04-04T04:24:57.471Z,59475.88
2023-04-04T04:27:25.874Z,59476.41
2023-04-04T04:29:54.544Z,59467.81
2023-04-04T04:32:26.481Z,59465.84
2023-04-04T04:34:55.029Z,59468.50
2023-04-04T04:37:23.774Z,59471.56
2023-04-04T04:39:52.198Z,59476.09
2023-04-04T04:42:21.336Z,59468.50
2023-04-04T04:44:49.744Z,59473.56
2023-04-04T04:47:18.038Z,59469.03
2023-04-04T04:49:49.628Z,59469.03
2023-04-04T04:52:19.261Z,59469.03
2023-04-04T04:54:48.432Z,59471.72
2023-04-04T04:57:17.182Z,59467.97
2023-04-04T04:59:45.535Z,59472.50
2023-04-04T05:02:14.269Z,59469.81
2023-04-04T05:04:44.954Z,59465.28
2023-04-04T05:07:15.081Z,59466.22
2023-04-04T05:09:43.455Z,59456.84
2023-04-04T05:12:11.804Z,59468.03
2023-04-04T05:14:40.323Z,59466.41
2023-04-04T05:17:08.712Z,59461.38
2023-04-04T05:19:37.038Z,59459.22
2023-04-04T05:22:05.659Z,59459.75
2023-04-04T05:24:35.386Z,59463.38
2023-04-04T05:27:04.128Z,59463.53
2023-04-04T05:29:33.338Z,59459.91
2023-04-04T05:32:01.830Z,59460.47
2023-04-04T05:34:30.424Z,59463.69
2023-04-04T05:36:58.873Z,59460.47
2023-04-04T05:39:27.186Z,59470.72
2023-04-04T05:41:56.926Z,59468.34
2023-04-04T05:44:25.398Z,59476.78
2023-04-04T05:46:53.766Z,59474.25
2023-04-04T05:49:22.140Z,59476.56
2023-04-04T05:51:50.477Z,59481.25
2023-04-04T05:54:18.802Z,59485.00
2023-04-04T05:56:47.537Z,59490.94
2023-04-04T05:59:17.976Z,59492.00
2023-04-04T06:01:46.404Z,59494.13
2023-04-04T06:04:14.966Z,59492.72
2023-04-04T06:06:43.579Z,59501.69
2023-04-04T06:09:11.968Z,59505.06
2023-04-04T06:11:40.395Z,59515.66
2023-04-04T06:14:09.199Z,59515.66
2023-04-04T06:16:38.960Z,59513.50
2023-04-04T06:19:07.447Z,59517.44
2023-04-04T06:21:36.154Z,59522.09
2023-04-04T06:24:04.696Z,59524.94
2023-04-04T06:26:33.618Z,59531.78
2023-04-04T06:29:01.987Z,59533.56
2023-04-04T06:31:30.733Z,59540.41
2023-04-04T06:34:01.797Z,59546.28
2023-04-04T06:36:30.339Z,59554.38
2023-04-04T06:38:58.926Z,59557.59
2023-04-04T06:41:27.349Z,59556.31
2023-04-04T06:43:55.791Z,59572.50
2023-04-04T06:46:25.221Z,59576.03
2023-04-04T06:48:54.858Z,59583.41
2023-04-04T06:51:24.642Z,59587.34
2023-04-04T06:53:53.058Z,59589.09
2023-04-04T06:56:21.718Z,59595.25
2023-04-04T06:58:50.887Z,59593.41
2023-04-04T07:01:19.275Z,59598.81
2023-04-04T07:03:47.747Z,59611.38
2023-04-04T07:06:16.127Z,59609.56
2023-04-04T07:08:45.979Z,59619.09
2023-04-04T07:11:14.479Z,59629.16
2023-04-04T07:13:42.831Z,59637.78
2023-04-04T07:16:11.810Z,59641.00
2023-04-04T07:18:40.217Z,59644.91
2023-04-04T07:21:08.541Z,59650.31
2023-04-04T07:23:37.349Z,59649.38
2023-04-04T07:26:07.432Z,59662.22
2023-04-04T07:28:35.886Z,59661.47
2023-04-04T07:31:04.498Z,59667.38
2023-04-04T07:33:32.851Z,59670.63
2023-04-04T07:36:02.520Z,59670.38
2023-04-04T07:38:31.176Z,59676.84
2023-04-04T07:40:59.607Z,59685.31
2023-04-04T07:43:29.415Z,59691.53
2023-04-04T07:45:57.762Z,59697.47
2023-04-04T07:48:26.689Z,59711.53
2023-04-04T07:50:55.107Z,59724.47
2023-04-04T07:53:23.620Z,59725.72
2023-04-04T07:55:51.974Z,59720.09
2023-04-04T07:58:21.682Z,59732.41
2023-04-04T08:00:51.448Z,59725.72
2023-04-04T08:03:20.269Z,59722.25
2023-04-04T08:05:48.768Z,59735.78
2023-04-04T08:08:17.074Z,59732.72
2023-04-04T08:10:45.998Z,59736.34
2023-04-04T08:13:14.382Z,59732.66
2023-04-04T08:15:42.765Z,59745.66
2023-04-04T08:18:12.626Z,59756.44
2023-04-04T08:20:41.262Z,59757.81
2023-04-04T08:23:09.871Z,59772.97
2023-04-04T08:25:39.440Z,59770.81
2023-04-04T08:28:07.816Z,59766.81
2023-04-04T08:30:36.303Z,59771.91
2023-04-04T08:33:06.419Z,59772.75
2023-04-04T08:35:36.581Z,59773.69
2023-04-04T08:38:06.292Z,59775.44
2023-04-04T08:40:35.017Z,59780.84
2023-04-04T08:43:05.660Z,59794.53
2023-04-04T08:45:36.086Z,59806.94
2023-04-04T08:48:06.085Z,59813.56
2023-04-04T08:50:38.274Z,59820.41
2023-04-04T08:53:09.023Z,59829.06
2023-04-04T08:55:37.669Z,59827.59
2023-04-04T08:58:06.370Z,59832.81
2023-04-04T09:00:34.881Z,59831.00
2023-04-04T09:03:10.641Z,59842.00
2023-04-04T09:05:40.505Z,59837.47
2023-04-04T09:08:09.219Z,59843.63
2023-04-04T09:10:38.616Z,59839.84
2023-04-04T09:13:15.644Z,59854.97
2023-04-04T09:15:49.107Z,59863.50
2023-04-04T09:18:17.990Z,59884.41
2023-04-04T09:20:48.725Z,59903.50
2023-04-04T09:23:18.660Z,59917.56
2023-04-04T09:28:22.034Z,59926.88
2023-04-04T09:30:51.531Z,59933.34
2023-04-04T09:33:23.972Z,59937.28
2023-04-04T09:35:58.715Z,59954.25
2023-04-04T09:38:29.301Z,59950.47
2023-04-04T09:40:58.150Z,59952.41
2023-04-04T09:43:30.843Z,59953.19
2023-04-04T09:46:01.262Z,59968.63
2023-04-04T09:48:32.607Z,59985.91
2023-04-04T09:51:05.804Z,60010.06
2023-04-04T09:53:36.957Z,60021.94
2023-04-04T09:56:05.680Z,60035.47
2023-04-04T09:58:36.245Z,60035.31
2023-04-04T10:01:09.605Z,60040.31
2023-04-04T10:03:39.228Z,60044.09
2023-04-04T10:06:11.122Z,60045.31
2023-04-04T10:08:41.269Z,60055.06
2023-04-04T10:11:12.417Z,60086.13
2023-04-04T10:13:44.115Z,60108.28
2023-04-04T10:16:13.023Z,60116.31
2023-04-04T10:18:41.560Z,60094.66
2023-04-04T10:21:15.683Z,60083.41
2023-04-04T10:23:47.822Z,60085.56
2023-04-04T10:26:16.632Z,60079.94
2023-04-04T10:28:45.413Z,60104.66
2023-04-04T10:31:23.659Z,60114.00
2023-04-04T10:34:02.133Z,60123.91
2023-04-04T10:36:39.551Z,60175.69
2023-04-04T10:39:14.488Z,60166.47
2023-04-04T10:41:43.626Z,60147.38
2023-04-04T10:44:20.286Z,60120.63
2023-04-04T10:46:54.055Z,60111.84
2023-04-04T10:49:23.852Z,60098.69
2023-04-04T10:51:57.275Z,60087.50
2023-04-04T10:54:27.801Z,60085.34
2023-04-04T10:57:00.601Z,60082.09
2023-04-04T10:59:29.329Z,60124.66
2023-04-04T11:01:59.266Z,60170.50
2023-04-04T11:04:33.867Z,60227.91
2023-04-04T11:07:17.899Z,60304.44
2023-04-04T11:09:53.524Z,60301.19
2023-04-04T11:12:33.464Z,60347.16
2023-04-04T11:15:10.821Z,60312.72
2023-04-04T11:17:58.699Z,60289.97
2023-04-04T11:20:33.356Z,60279.50
2023-04-04T11:23:10.720Z,60270.44
2023-04-04T11:25:40.776Z,60253.13
2023-04-04T11:28:14.688Z,60247.56
2023-04-04T11:30:51.381Z,60273.56
2023-04-04T11:33:55.156Z,60254.59
2023-04-04T11:36:50.777Z,60259.22
2023-04-04T11:39:31.349Z,60225.63
2023-04-04T11:42:04.597Z,60217.91
2023-04-04T11:44:34.672Z,60196.47
2023-04-04T11:47:10.431Z,60182.72
2023-04-04T11:49:41.173Z,60200.03
2023-04-04T11:52:10.876Z,60270.06
2023-04-04T11:54:42.361Z,60333.69
2023-04-04T11:57:13.061Z,60338.72
2023-04-04T11:59:42.687Z,60324.63
2023-04-04T12:02:11.610Z,60320.69
2023-04-04T12:04:44.446Z,60280.06
2023-04-04T12:07:14.202Z,60271.22
2023-04-04T12:09:44.682Z,60253.13
2023-04-04T12:12:14.404Z,60253.91
2023-04-04T12:14:43.259Z,60289.25
2023-04-04T12:17:12.110Z,60308.38
2023-04-04T12:19:41.843Z,60355.84
2023-04-04T12:22:10.232Z,60394.19
2023-04-04T12:24:38.872Z,60398.75
2023-04-04T12:27:08.926Z,60406.66
2023-04-04T12:29:38.152Z,60345.22
2023-04-04T12:32:07.648Z,60419.53
2023-04-04T12:34:45.632Z,60445.03
2023-04-04T12:37:19.152Z,60437.44
2023-04-04T12:39:49.486Z,60407.44
2023-04-04T12:42:24.006Z,60379.38
2023-04-04T12:44:53.976Z,60360.81
2023-04-04T12:47:24.290Z,60325.56
2023-04-04T12:49:55.337Z,60285.38
2023-04-04T12:52:28.065Z,60267.50
2023-04-04T12:55:08.230Z,60274.09
2023-04-04T12:57:40.835Z,60304.59
2023-04-04T13:00:10.433Z,60332.06
2023-04-04T13:02:39.958Z,60374.50
2023-04-04T13:05:11.264Z,60401.09
2023-04-04T13:07:43.518Z,60473.25
2023-04-04T13:10:15.910Z,60497.44
2023-04-04T13:13:00.041Z,60481.91
2023-04-04T13:15:50.731Z,60430.13
2023-04-04T13:18:21.709Z,60421.16
2023-04-04T13:20:50.150Z,60369.63
2023-04-04T13:23:19.031Z,60405.41
2023-04-04T13:25:47.652Z,60446.50
2023-04-04T13:28:17.354Z,60455.88
2023-04-04T13:30:49.452Z,60456.41
2023-04-04T13:33:18.699Z,60455.88
2023-04-04T13:35:47.805Z,60467.25
2023-04-04T13:38:16.592Z,60462.94
2023-04-04T13:40:45.632Z,60455.47
2023-04-04T13:43:15.128Z,60402.69
2023-04-04T13:45:45.192Z,60389.00
2023-04-04T13:48:14.162Z,60355.28
2023-04-04T13:50:44.561Z,60346.16
2023-04-04T13:53:13.121Z,60313.09
2023-04-04T13:55:52.094Z,60308.38
2023-04-04T13:58:29.770Z,60304.44
2023-04-04T14:00:59.538Z,60361.50
2023-04-04T14:03:28.236Z,60344.16
2023-04-04T14:05:56.590Z,60409.22
2023-04-04T14:08:24.945Z,60455.88
2023-04-04T14:10:53.339Z,60435.50
2023-04-04T14:13:22.154Z,60440.81
2023-04-04T14:15:51.361Z,60425.88
2023-04-04T14:18:21.165Z,60402.31
2023-04-04T14:20:49.591Z,60385.34
2023-04-04T14:23:17.977Z,60357.28
2023-04-04T14:25:46.367Z,60329.38
2023-04-04T14:28:14.750Z,60318.13
2023-04-04T14:30:43.358Z,60313.50
2023-04-04T14:33:11.833Z,60322.47
2023-04-04T14:35:42.205Z,60344.69
2023-04-04T14:38:10.727Z,60363.53
2023-04-04T14:40:39.122Z,60370.31
2023-04-04T14:43:07.673Z,60367.22
2023-04-04T14:45:36.217Z,60389.16
2023-04-04T14:48:04.710Z,60391.47
2023-04-04T14:50:33.116Z,60371.94
2023-04-04T14:53:02.816Z,60369.06
2023-04-04T14:55:31.210Z,60355.00
2023-04-04T14:58:02.411Z,60335.47
2023-04-04T15:00:31.655Z,60319.75
2023-04-04T15:03:00.252Z,60330.06
2023-04-04T15:05:28.798Z,60310.53
2023-04-04T15:07:57.155Z,60298.63
2023-04-04T15:10:26.968Z,60303.63
2023-04-04T15:12:55.353Z,60304.03
2023-04-04T15:15:23.921Z,60305.81
2023-04-04T15:17:52.417Z,60309.88
2023-04-04T15:20:20.892Z,60299.31
2023-04-04T15:22:49.301Z,60294.84
2023-04-04T15:25:17.628Z,60291.03
2023-04-04T15:27:47.326Z,60286.69
2023-04-04T15:30:16.158Z,60285.63
2023-04-04T15:32:44.604Z,60292.91
2023-04-04T15:35:17.986Z,60290.91
2023-04-04T15:37:46.465Z,60280.75
2023-04-04T15:40:15.478Z,60276.94
2023-04-04T15:42:43.956Z,60280.22
2023-04-04T15:45:14.541Z,60281.28
2023-04-04T15:47:43.724Z,60290.75
2023-04-04T15:50:12.805Z,60286.69
2023-04-04T15:52:41.820Z,60270.75
2023-04-04T15:55:13.407Z,60266.81
2023-04-04T15:57:44.398Z,60265.97
2023-04-04T16:00:17.044Z,60253.13
2023-04-04T16:02:45.852Z,60252.56
2023-04-04T16:05:14.311Z,60241.66
2023-04-04T16:07:42.657Z,60246.84
2023-04-04T16:10:11.695Z,60244.69
2023-04-04T16:12:40.089Z,60235.00
2023-04-04T16:15:09.895Z,60243.03
2023-04-04T16:17:39.695Z,60242.69
2023-04-04T16:20:09.693Z,60244.28
2023-04-04T16:22:38.069Z,60241.22
2023-04-04T16:25:08.967Z,60237.94
2023-04-04T16:27:37.524Z,60230.25
2023-04-04T16:30:08.142Z,60234.69
2023-04-04T16:32:37.479Z,60236.16
2023-04-04T16:35:09.007Z,60225.34
2023-04-04T16:37:37.321Z,60224.25
2023-04-04T16:40:06.745Z,60224.63
2023-04-04T16:42:35.398Z,60216.81
2023-04-04T16:45:04.268Z,60208.31
2023-04-04T16:47:32.695Z,60205.47
2023-04-04T16:50:01.357Z,60206.91
2023-04-04T16:52:31.319Z,60202.19
2023-04-04T16:54:59.717Z,60202.59
2023-04-04T16:57:28.412Z,60204.75
2023-04-04T16:59:57.829Z,60197.88
2023-04-04T17:02:26.580Z,60197.88
2023-04-04T17:04:55.006Z,60201.50
2023-04-04T17:07:23.388Z,60202.97
2023-04-04T17:09:53.196Z,60199.88
2023-04-04T17:12:21.666Z,60200.28
2023-04-04T17:14:50.168Z,60202.97
2023-04-04T17:17:18.749Z,60198.25
2023-04-04T17:19:47.283Z,60196.63
2023-04-04T17:22:16.059Z,60190.81
2023-04-04T17:24:44.503Z,60187.03
2023-04-04T17:27:14.733Z,60188.13
2023-04-04T17:29:43.183Z,60183.25
2023-04-04T17:32:11.785Z,60180.53
2023-04-04T17:34:40.346Z,60177.31
2023-04-04T17:37:11.151Z,60184.97
2023-04-04T17:39:39.631Z,60176.59
2023-04-04T17:42:08.034Z,60169.72
2023-04-04T17:44:38.121Z,60169.97
2023-04-04T17:47:06.720Z,60161.44
2023-04-04T17:49:35.454Z,60160.53
2023-04-04T17:52:04.463Z,60158.22
2023-04-04T17:54:33.082Z,60156.75
2023-04-04T17:57:03.293Z,60157.81
2023-04-04T17:59:31.732Z,60152.56
2023-04-04T18:02:01.566Z,60153.09
2023-04-04T18:04:30.285Z,60150.56
2023-04-04T18:06:59.112Z,60155.66
2023-04-04T18:09:29.084Z,60153.47
2023-04-04T18:11:57.680Z,60159.28
2023-04-04T18:14:26.337Z,60148.63
2023-04-04T18:16:55.002Z,60158.59
2023-04-04T18:19:24.801Z,60149.16
2023-04-04T18:21:59.809Z,60154.28
2023-04-04T18:24:28.503Z,60145.38
2023-04-04T18:26:57.169Z,60145.22
2023-04-04T18:29:26.836Z,60143.47
2023-04-04T18:31:55.405Z,60136.16
2023-04-04T18:34:25.148Z,60137.13
2023-04-04T18:36:53.487Z,60136.16
2023-04-04T18:39:21.886Z,60130.38
2023-04-04T18:41:50.968Z,60131.31
2023-04-04T18:44:19.334Z,60129.16
2023-04-04T18:46:47.855Z,60128.31
2023-04-04T18:49:16.242Z,60120.50
2023-04-04T18:51:47.292Z,60122.13
2023-04-04T18:54:15.754Z,60124.13
2023-04-04T18:56:44.109Z,60121.03
2023-04-04T18:59:12.472Z,60128.31
2023-04-04T19:01:40.916Z,60121.03
2023-04-04T19:04:09.707Z,60126.28
2023-04-04T19:06:39.977Z,60118.50
2023-04-04T19:09:10.891Z,60122.66
2023-04-04T19:11:39.482Z,60121.03
2023-04-04T19:14:09.396Z,60121.97
2023-04-04T19:16:37.976Z,60118.88
2023-04-04T19:19:06.559Z,60122.34
2023-04-04T19:21:35.040Z,60116.16
2023-04-04T19:24:03.679Z,60117.09
2023-04-04T19:26:33.845Z,60116.00
2023-04-04T19:29:02.190Z,60113.31
2023-04-04T19:31:32.981Z,60112.22
2023-04-04T19:34:03.563Z,60107.50
2023-04-04T19:36:36.142Z,60103.72
2023-04-04T19:39:06.588Z,60103.19
2023-04-04T19:41:37.508Z,60103.03
2023-04-04T19:44:07.983Z,60100.88
2023-04-04T19:46:36.494Z,60095.06
2023-04-04T19:49:11.714Z,60094.00
2023-04-04T19:51:42.697Z,60091.81
2023-04-04T19:54:18.071Z,60088.44
2023-04-04T19:56:51.236Z,60094.09
2023-04-04T19:59:56.649Z,60086.44
2023-04-04T20:02:57.752Z,60086.28
2023-04-04T20:05:58.640Z,60079.94
2023-04-04T20:08:36.696Z,60082.31
2023-04-04T20:11:06.341Z,60072.38
2023-04-04T20:13:37.764Z,60066.41
2023-04-04T20:16:08.883Z,60062.25
2023-04-04T20:18:38.348Z,60060.47
2023-04-04T20:21:09.289Z,60057.22
2023-04-04T20:23:46.831Z,60051.44
2023-04-04T20:26:51.114Z,60048.59
2023-04-04T20:29:23.298Z,60043.56
2023-04-04T20:31:53.300Z,60038.16
2023-04-04T20:34:32.909Z,60027.50
2023-04-04T20:37:03.205Z,60018.31
2023-04-04T20:39:43.887Z,60017.63
2023-04-04T20:42:19.037Z,60016.91
2023-04-04T20:44:48.837Z,60009.66
2023-04-04T20:47:43.505Z,60004.66
2023-04-04T20:50:39.093Z,59994.84
2023-04-04T20:53:08.002Z,59993.84
2023-04-04T20:55:36.688Z,59992.38
2023-04-04T20:58:08.783Z,59989.13
2023-04-04T21:00:42.489Z,59985.75
2023-04-04T21:03:12.646Z,59977.66
2023-04-04T21:05:41.614Z,59974.03
2023-04-04T21:08:42.283Z,59975.88
2023-04-04T21:11:11.973Z,59970.78
2023-04-04T21:13:41.425Z,59972.25
2023-04-04T21:16:12.947Z,59971.53
2023-04-04T21:18:42.487Z,59966.28
2023-04-04T21:21:16.989Z,59962.00
2023-04-04T21:23:55.845Z,59961.44
2023-04-04T21:26:32.922Z,59958.59
2023-04-04T21:29:03.135Z,59947.00
2023-04-04T21:31:37.958Z,59940.53
2023-04-04T21:34:15.699Z,59938.75
2023-04-04T21:36:44.959Z,59930.25
2023-04-04T21:39:15.641Z,59932.28
2023-04-04T21:41:46.209Z,59924.72
2023-04-04T21:44:14.638Z,59923.63
2023-04-04T21:46:44.433Z,59921.47
2023-04-04T21:49:12.911Z,59915.00
2023-04-04T21:51:41.437Z,59905.59
2023-04-04T21:54:10.292Z,59908.00
2023-04-04T21:56:38.885Z,59903.50
2023-04-04T21:59:09.399Z,59901.34
2023-04-04T22:01:38.764Z,59897.03
2023-04-04T22:04:08.636Z,59890.16
2023-04-04T22:06:37.048Z,59882.22
2023-04-04T22:09:06.498Z,59880.63
2023-04-04T22:11:38.852Z,59881.53
2023-04-04T22:14:08.124Z,59880.84
2023-04-04T22:16:39.751Z,59878.69
2023-04-04T22:19:11.379Z,59874.53
2023-04-04T22:21:47.721Z,59872.91
2023-04-04T22:24:17.945Z,59867.13
2023-04-04T22:26:47.259Z,59868.59
2023-04-04T22:29:15.621Z,59867.91
2023-04-04T22:31:44.078Z,59864.28
2023-04-04T22:34:15.139Z,59856.34
2023-04-04T22:36:44.530Z,59855.78
2023-04-04T22:39:15.966Z,59852.03
2023-04-04T22:41:45.558Z,59856.56
2023-04-04T22:44:13.991Z,59847.69
2023-04-04T22:46:42.529Z,59846.63
2023-04-04T22:49:11.043Z,59850.63
2023-04-04T22:51:45.708Z,59844.47
2023-04-04T22:54:15.787Z,59843.38
2023-04-04T22:56:44.629Z,59836.06
2023-04-04T22:59:13.496Z,59824.88
2023-04-04T23:01:42.176Z,59820.03
2023-04-04T23:04:11.174Z,59816.66
2023-04-04T23:06:41.200Z,59811.81
2023-04-04T23:09:09.672Z,59804.41
2023-04-04T23:11:38.809Z,59798.47
2023-04-04T23:14:09.602Z,59799.06
2023-04-04T23:16:38.364Z,59781.94
2023-04-04T23:19:06.733Z,59785.38
2023-04-04T23:21:36.497Z,59780.16
2023-04-04T23:24:07.955Z,59776.38
2023-04-04T23:26:36.431Z,59776.22
2023-04-04T23:29:05.864Z,59774.06
2023-04-04T23:31:35.411Z,59769.38
2023-04-04T23:34:03.796Z,59768.66
2023-04-04T23:36:32.175Z,59758.19
2023-04-04T23:39:00.726Z,59757.13
2023-04-04T23:41:30.563Z,59764.06
2023-04-04T23:43:58.966Z,59756.44
2023-04-04T23:46:30.176Z,59754.25
2023-04-04T23:48:58.586Z,59751.97
2023-04-04T23:51:30.269Z,59746.34
2023-04-04T23:54:00.254Z,59748.72
2023-04-04T23:56:29.942Z,59744.72
2023-04-04T23:58:58.293Z,59753.28
